Stk-1004 — UBEM — position and weather

sailwx.info

Track history (hours):
 
Tides and Currents Weather Stations Pressure Air Temp Water Temp Dewpoint Dewpoint Depression Visibility Wind Speed Wind Dir Waves Ship Positions

Stk-1004

Last reported at 2017-Jun-24 22:30 UTC. Time now 2017-Jun-24 22:39 UTC.
Position N 59°56' E 030°17'.

Length 82 m; draft 2.5 m.

Type: Cargo ship. MMSI: 273439130.

Date/timePositionNaut miles runAvg speedWind from/ knotsBaromVisibWave heightAir tempDewpointWater temp
2017-Jun-24 22:30N 59°56' E 030°17'0 0.0
2017-Jun-24 22:00N 59°56' E 030°17'0 0.0
2017-Jun-24 21:30N 59°56' E 030°17'0 0.0
2017-Jun-24 21:00N 59°56' E 030°17'0 0.0
2017-Jun-24 20:30N 59°56' E 030°17'0 0.0
2017-Jun-24 20:00N 59°56' E 030°17'0 0.0
2017-Jun-24 19:30N 59°56' E 030°17'0 0.0
2017-Jun-24 19:00N 59°56' E 030°17'0 0.0
2017-Jun-24 18:30N 59°56' E 030°17'0 0.0
2017-Jun-24 18:00N 59°56' E 030°17'0 0.0
2017-Jun-24 17:30N 59°56' E 030°17'0 0.0
2017-Jun-24 17:00N 59°56' E 030°17'0 0.0
2017-Jun-24 16:30N 59°56' E 030°17'0 0.0
2017-Jun-24 16:00N 59°56' E 030°17'0 0.0
2017-Jun-24 15:30N 59°56' E 030°17'0 0.0
2017-Jun-24 15:00N 59°56' E 030°17'0 0.0
2017-Jun-24 14:00N 59°56' E 030°17'0 0.0
2017-Jun-24 13:29N 59°56' E 030°17'0 0.0
2017-Jun-24 13:00N 59°56' E 030°17'0 0.0
2017-Jun-24 12:30N 59°56' E 030°17'0 0.0
2017-Jun-24 12:00N 59°56' E 030°17'0 0.0
2017-Jun-24 11:30N 59°56' E 030°17'2 4.1
2017-Jun-24 11:00N 59°55' E 030°13'4 7.5
2017-Jun-24 10:30N 59°57' E 030°07'4 7.8
2017-Jun-24 10:00N 59°55' E 029°59'4 8.2
2017-Jun-24 09:30N 59°57' E 029°52'4 8.0
2017-Jun-24 09:00N 59°59' E 029°45'4 8.0
2017-Jun-24 08:29N 60°00' E 029°37'4 8.2
2017-Jun-24 08:01N 60°01' E 029°29'3 5.4
2017-Jun-24 07:30N 60°01' E 029°24'0 0.0
2017-Jun-24 05:05N 60°01' E 029°24'0 0.0
2017-Jun-24 04:48N 60°01' E 029°24'0 0.0
2017-Jun-24 04:20N 60°01' E 029°24'1 0.8
2017-Jun-24 02:41N 60°01' E 029°21'3 6.9
2017-Jun-24 02:15N 60°01' E 029°15'2 7.0
2017-Jun-24 02:00N 60°02' E 029°12'4 7.0
2017-Jun-24 01:30N 60°02' E 029°05'3 6.1
2017-Jun-24 01:01N 60°03' E 028°59'3 6.8
2017-Jun-24 00:30N 60°06' E 028°57'3 6.5
2017-Jun-23 23:59N 60°09' E 028°56'3 5.8
2017-Jun-23 23:29N 60°11' E 028°52'3 6.5
2017-Jun-23 23:01N 60°12' E 028°46'3 6.6
2017-Jun-23 22:30N 60°14' E 028°40'3 6.5
2017-Jun-23 21:59N 60°15' E 028°34'3 6.4
2017-Jun-23 21:30N 60°17' E 028°28'3 6.5
2017-Jun-23 21:00N 60°19' E 028°24'4 7.5
2017-Jun-23 20:31N 60°22' E 028°20'4 8.2
2017-Jun-23 20:00N 60°26' E 028°20'4 8.2
2017-Jun-23 19:30N 60°30' E 028°21'4 7.8
2017-Jun-23 19:00N 60°34' E 028°23'3 6.9
2017-Jun-23 18:30N 60°36' E 028°30'4 7.4
2017-Jun-23 18:00N 60°38' E 028°35'4 7.8
2017-Jun-23 17:31N 60°41' E 028°41'3 6.4
2017-Jun-23 17:00N 60°44' E 028°41'4 7.0
2017-Jun-23 16:30N 60°47' E 028°43'1 2.6
2017-Jun-23 16:00N 60°49' E 028°44'0 1.0
2017-Jun-23 15:30N 60°49' E 028°44'1 2.1
2017-Jun-23 15:00N 60°50' E 028°44'5 4.7
2017-Jun-23 14:00N 60°54' E 028°37'1 1.7
2017-Jun-23 13:30N 60°54' E 028°37'0 0.0
2017-Jun-23 13:00N 60°54' E 028°37'2 3.5
2017-Jun-23 12:30N 60°56' E 028°36'3 6.7
2017-Jun-23 12:00N 60°58' E 028°31'3 6.4
2017-Jun-23 11:30N 61°01' E 028°27'2 3.9
2017-Jun-23 11:00N 61°02' E 028°24'3 5.4
2017-Jun-23 10:30N 61°04' E 028°19'1 1.5
2017-Jun-23 10:00N 61°04' E 028°18'1 1.8
2017-Jun-23 09:30N 61°05' E 028°17'1 2.2
2017-Jun-23 09:00N 61°04' E 028°14'0 0.0
2017-Jun-23 08:30N 61°04' E 028°14'0 0.0
2017-Jun-23 08:00N 61°04' E 028°14'0 0.0
2017-Jun-23 07:30N 61°04' E 028°14'0 0.0
2017-Jun-23 07:00N 61°04' E 028°14'0 0.0
2017-Jun-23 06:30N 61°04' E 028°14'0 0.0
2017-Jun-23 06:00N 61°04' E 028°14'0 0.0
2017-Jun-23 05:30N 61°04' E 028°14'0 0.0
2017-Jun-23 05:00N 61°04' E 028°14'0 0.0
2017-Jun-23 04:30N 61°04' E 028°14'0 0.0
2017-Jun-23 04:00N 61°04' E 028°14'0 0.0
2017-Jun-23 03:30N 61°04' E 028°14'0 0.0
2017-Jun-23 03:00N 61°04' E 028°14'0 0.0
2017-Jun-23 02:30N 61°04' E 028°14'0 0.0
2017-Jun-23 02:00N 61°04' E 028°14'0 0.0
2017-Jun-23 01:30N 61°04' E 028°14'0 0.0
2017-Jun-23 01:00N 61°04' E 028°14'1 2.5
2017-Jun-23 00:30N 61°05' E 028°17'1 1.6
2017-Jun-23 00:00N 61°04' E 028°18'1 1.4
2017-Jun-22 23:30N 61°04' E 028°19'2 4.8
2017-Jun-22 23:00N 61°03' E 028°24'1 1.1
2017-Jun-22 22:30N 61°02' E 028°24'3 5.1
2017-Jun-22 22:00N 61°00' E 028°28'3 5.4
2017-Jun-22 21:30N 60°58' E 028°31'3 5.7
2017-Jun-22 21:00N 60°56' E 028°36'2 4.1
2017-Jun-22 20:30N 60°54' E 028°37'0 0.0
2017-Jun-22 20:00N 60°54' E 028°37'0 0.3
2017-Jun-22 19:30N 60°54' E 028°37'1 1.6
2017-Jun-22 19:00N 60°54' E 028°37'1 2.1
2017-Jun-22 18:30N 60°53' E 028°39'3 5.3
2017-Jun-22 18:00N 60°51' E 028°42'1 2.5
2017-Jun-22 17:30N 60°50' E 028°44'1 2.4
2017-Jun-22 17:00N 60°49' E 028°44'0 0.3
2017-Jun-22 16:29N 60°49' E 028°44'0 0.1
2017-Jun-22 16:00N 60°49' E 028°44'1 2.8
2017-Jun-22 15:30N 60°47' E 028°43'3 6.0
2017-Jun-22 15:00N 60°44' E 028°42'6 5.9
2017-Jun-22 14:00N 60°39' E 028°36'3 6.7
2017-Jun-22 13:30N 60°36' E 028°32'4 7.0
2017-Jun-22 13:00N 60°35' E 028°26'3 6.6
2017-Jun-22 12:30N 60°32' E 028°22'4 7.1
2017-Jun-22 12:00N 60°29' E 028°22'3 6.7
2017-Jun-22 11:30N 60°25' E 028°20'3 6.9
2017-Jun-22 11:00N 60°22' E 028°20'3 6.5
2017-Jun-22 10:31N 60°19' E 028°24'3 6.8
2017-Jun-22 10:00N 60°17' E 028°29'3 6.7
2017-Jun-22 09:30N 60°15' E 028°34'3 6.8
2017-Jun-22 09:01N 60°14' E 028°41'3 6.9
2017-Jun-22 08:31N 60°12' E 028°47'3 6.8
2017-Jun-22 08:00N 60°11' E 028°53'3 7.0
2017-Jun-22 07:30N 60°08' E 028°56'4 7.1
2017-Jun-22 07:00N 60°04' E 028°58'3 6.1
2017-Jun-22 06:29N 60°03' E 029°04'3 7.1
2017-Jun-22 06:00N 60°02' E 029°11'29 6.5
2017-Jun-22 01:33N 59°54' E 030°06'0 7.0
2017-Jun-22 01:30N 59°54' E 030°06'3 6.2
2017-Jun-22 01:00N 59°53' E 030°12'4 7.5
2017-Jun-22 00:31N 59°56' E 030°17'4 7.1
2017-Jun-22 00:00N 59°57' E 030°24'2 4.1
2017-Jun-21 23:30N 59°55' E 030°24'0 0.0
2017-Jun-21 23:00N 59°55' E 030°24'0 0.0
2017-Jun-21 22:28N 59°55' E 030°24'0 0.0
2017-Jun-21 22:01N 59°55' E 030°24'0 0.0
2017-Jun-21 21:30N 59°55' E 030°24'0 0.0
2017-Jun-21 20:59N 59°55' E 030°24'0 0.0
2017-Jun-21 20:25N 59°55' E 030°24'0 0.0
2017-Jun-21 20:00N 59°55' E 030°24'0 0.0
2017-Jun-21 19:29N 59°55' E 030°24'0 0.0
2017-Jun-21 18:59N 59°55' E 030°24'0 0.0
2017-Jun-21 18:30N 59°55' E 030°24'0 0.0
2017-Jun-21 17:59N 59°55' E 030°24'0 0.0
2017-Jun-21 17:31N 59°55' E 030°24'0 0.0
2017-Jun-21 17:00N 59°55' E 030°24'0 0.0
2017-Jun-21 16:30N 59°55' E 030°24'0 0.0
2017-Jun-21 16:00N 59°55' E 030°24'0 0.0
2017-Jun-21 15:30N 59°55' E 030°24'0 0.0
2017-Jun-21 15:00N 59°55' E 030°24'1 1.0
2017-Jun-21 14:00N 59°55' E 030°25'  
2017-Jun-16 02:27N 59°47' E 030°44'2 4.7
2017-Jun-16 02:00N 59°47' E 030°40'5 4.3
2017-Jun-16 00:52N 59°50' E 030°32'2 4.6
2017-Jun-16 00:30N 59°51' E 030°30'3 4.5
2017-Jun-15 23:57N 59°53' E 030°27'3 6.2
2017-Jun-15 23:30N 59°56' E 030°24'2 3.8
2017-Jun-15 23:00N 59°57' E 030°21'2 4.7
2017-Jun-15 22:30N 59°56' E 030°17'0 0.1
2017-Jun-15 22:00N 59°56' E 030°17'0 0.0
2017-Jun-15 21:30N 59°56' E 030°17'0 0.0
2017-Jun-15 21:00N 59°56' E 030°17'0 0.0
2017-Jun-15 20:30N 59°56' E 030°17'0 0.0
2017-Jun-15 20:00N 59°56' E 030°17'2 3.4
2017-Jun-15 19:30N 59°55' E 030°14'4 7.6
2017-Jun-15 19:00N 59°56' E 030°08'4 7.8
2017-Jun-15 18:30N 59°55' E 030°00'4 8.3
2017-Jun-15 18:00N 59°57' E 029°52'4 8.1
2017-Jun-15 17:30N 59°59' E 029°45'3 5.7
2017-Jun-15 17:00N 59°60' E 029°40'4 7.1
2017-Jun-15 16:30N 60°01' E 029°33'4 7.6
2017-Jun-15 16:00N 60°01' E 029°26'4 8.4
2017-Jun-15 15:30N 60°02' E 029°17'4 8.1
2017-Jun-15 15:00N 60°02' E 029°09'7 7.1
2017-Jun-15 14:00N 60°05' E 028°57'4 8.7
2017-Jun-15 13:30N 60°10' E 028°55'4 8.2
2017-Jun-15 13:00N 60°12' E 028°48'5 9.3
2017-Jun-15 12:30N 60°14' E 028°40'4 8.7
2017-Jun-15 12:00N 60°15' E 028°32'4 8.2
2017-Jun-15 11:31N 60°18' E 028°26'5 9.3
2017-Jun-15 11:00N 60°22' E 028°21'4 8.1
2017-Jun-15 10:30N 60°26' E 028°20'4 8.1
2017-Jun-15 10:00N 60°30' E 028°21'4 7.3
2017-Jun-15 09:29N 60°34' E 028°23'  
Track history (hours):
 
Tides and Currents Weather Stations Pressure Air Temp Water Temp Dewpoint Dewpoint Depression Visibility Wind Speed Wind Dir Waves Ship Positions

Stk-1004

Last reported at 2017-Jun-24 22:30 UTC. Time now 2017-Jun-24 22:39 UTC.
Position N 59°56' E 030°17'.

Length 82 m; draft 2.5 m.

Type: Cargo ship. MMSI: 273439130.

Date/timePositionNaut miles runAvg speedWind from/ knotsBaromVisibWave heightAir tempDewpointWater temp
2017-Jun-24 22:30N 59°56' E 030°17'0 0.0
2017-Jun-24 22:00N 59°56' E 030°17'0 0.0
2017-Jun-24 21:30N 59°56' E 030°17'0 0.0
2017-Jun-24 21:00N 59°56' E 030°17'0 0.0
2017-Jun-24 20:30N 59°56' E 030°17'0 0.0
2017-Jun-24 20:00N 59°56' E 030°17'0 0.0
2017-Jun-24 19:30N 59°56' E 030°17'0 0.0
2017-Jun-24 19:00N 59°56' E 030°17'0 0.0
2017-Jun-24 18:30N 59°56' E 030°17'0 0.0
2017-Jun-24 18:00N 59°56' E 030°17'0 0.0
2017-Jun-24 17:30N 59°56' E 030°17'0 0.0
2017-Jun-24 17:00N 59°56' E 030°17'0 0.0
2017-Jun-24 16:30N 59°56' E 030°17'0 0.0
2017-Jun-24 16:00N 59°56' E 030°17'0 0.0
2017-Jun-24 15:30N 59°56' E 030°17'0 0.0
2017-Jun-24 15:00N 59°56' E 030°17'0 0.0
2017-Jun-24 14:00N 59°56' E 030°17'0 0.0
2017-Jun-24 13:29N 59°56' E 030°17'0 0.0
2017-Jun-24 13:00N 59°56' E 030°17'0 0.0
2017-Jun-24 12:30N 59°56' E 030°17'0 0.0
2017-Jun-24 12:00N 59°56' E 030°17'0 0.0
2017-Jun-24 11:30N 59°56' E 030°17'2 4.1
2017-Jun-24 11:00N 59°55' E 030°13'4 7.5
2017-Jun-24 10:30N 59°57' E 030°07'4 7.8
2017-Jun-24 10:00N 59°55' E 029°59'4 8.2
2017-Jun-24 09:30N 59°57' E 029°52'4 8.0
2017-Jun-24 09:00N 59°59' E 029°45'4 8.0
2017-Jun-24 08:29N 60°00' E 029°37'4 8.2
2017-Jun-24 08:01N 60°01' E 029°29'3 5.4
2017-Jun-24 07:30N 60°01' E 029°24'0 0.0
2017-Jun-24 05:05N 60°01' E 029°24'0 0.0
2017-Jun-24 04:48N 60°01' E 029°24'0 0.0
2017-Jun-24 04:20N 60°01' E 029°24'1 0.8
2017-Jun-24 02:41N 60°01' E 029°21'3 6.9
2017-Jun-24 02:15N 60°01' E 029°15'2 7.0
2017-Jun-24 02:00N 60°02' E 029°12'4 7.0
2017-Jun-24 01:30N 60°02' E 029°05'3 6.1
2017-Jun-24 01:01N 60°03' E 028°59'3 6.8
2017-Jun-24 00:30N 60°06' E 028°57'3 6.5
2017-Jun-23 23:59N 60°09' E 028°56'3 5.8
2017-Jun-23 23:29N 60°11' E 028°52'3 6.5
2017-Jun-23 23:01N 60°12' E 028°46'3 6.6
2017-Jun-23 22:30N 60°14' E 028°40'3 6.5
2017-Jun-23 21:59N 60°15' E 028°34'3 6.4
2017-Jun-23 21:30N 60°17' E 028°28'3 6.5
2017-Jun-23 21:00N 60°19' E 028°24'4 7.5
2017-Jun-23 20:31N 60°22' E 028°20'4 8.2
2017-Jun-23 20:00N 60°26' E 028°20'4 8.2
2017-Jun-23 19:30N 60°30' E 028°21'4 7.8
2017-Jun-23 19:00N 60°34' E 028°23'3 6.9
2017-Jun-23 18:30N 60°36' E 028°30'4 7.4
2017-Jun-23 18:00N 60°38' E 028°35'4 7.8
2017-Jun-23 17:31N 60°41' E 028°41'3 6.4
2017-Jun-23 17:00N 60°44' E 028°41'4 7.0
2017-Jun-23 16:30N 60°47' E 028°43'1 2.6
2017-Jun-23 16:00N 60°49' E 028°44'0 1.0
2017-Jun-23 15:30N 60°49' E 028°44'1 2.1
2017-Jun-23 15:00N 60°50' E 028°44'5 4.7
2017-Jun-23 14:00N 60°54' E 028°37'1 1.7
2017-Jun-23 13:30N 60°54' E 028°37'0 0.0
2017-Jun-23 13:00N 60°54' E 028°37'2 3.5
2017-Jun-23 12:30N 60°56' E 028°36'3 6.7
2017-Jun-23 12:00N 60°58' E 028°31'3 6.4
2017-Jun-23 11:30N 61°01' E 028°27'2 3.9
2017-Jun-23 11:00N 61°02' E 028°24'3 5.4
2017-Jun-23 10:30N 61°04' E 028°19'1 1.5
2017-Jun-23 10:00N 61°04' E 028°18'1 1.8
2017-Jun-23 09:30N 61°05' E 028°17'1 2.2
2017-Jun-23 09:00N 61°04' E 028°14'0 0.0
2017-Jun-23 08:30N 61°04' E 028°14'0 0.0
2017-Jun-23 08:00N 61°04' E 028°14'0 0.0
2017-Jun-23 07:30N 61°04' E 028°14'0 0.0
2017-Jun-23 07:00N 61°04' E 028°14'0 0.0
2017-Jun-23 06:30N 61°04' E 028°14'0 0.0
2017-Jun-23 06:00N 61°04' E 028°14'0 0.0
2017-Jun-23 05:30N 61°04' E 028°14'0 0.0
2017-Jun-23 05:00N 61°04' E 028°14'0 0.0
2017-Jun-23 04:30N 61°04' E 028°14'0 0.0
2017-Jun-23 04:00N 61°04' E 028°14'0 0.0
2017-Jun-23 03:30N 61°04' E 028°14'0 0.0
2017-Jun-23 03:00N 61°04' E 028°14'0 0.0
2017-Jun-23 02:30N 61°04' E 028°14'0 0.0
2017-Jun-23 02:00N 61°04' E 028°14'0 0.0
2017-Jun-23 01:30N 61°04' E 028°14'0 0.0
2017-Jun-23 01:00N 61°04' E 028°14'1 2.5
2017-Jun-23 00:30N 61°05' E 028°17'1 1.6
2017-Jun-23 00:00N 61°04' E 028°18'1 1.4
2017-Jun-22 23:30N 61°04' E 028°19'2 4.8
2017-Jun-22 23:00N 61°03' E 028°24'1 1.1
2017-Jun-22 22:30N 61°02' E 028°24'3 5.1
2017-Jun-22 22:00N 61°00' E 028°28'3 5.4
2017-Jun-22 21:30N 60°58' E 028°31'3 5.7
2017-Jun-22 21:00N 60°56' E 028°36'2 4.1
2017-Jun-22 20:30N 60°54' E 028°37'0 0.0
2017-Jun-22 20:00N 60°54' E 028°37'0 0.3
2017-Jun-22 19:30N 60°54' E 028°37'1 1.6
2017-Jun-22 19:00N 60°54' E 028°37'1 2.1
2017-Jun-22 18:30N 60°53' E 028°39'3 5.3
2017-Jun-22 18:00N 60°51' E 028°42'1 2.5
2017-Jun-22 17:30N 60°50' E 028°44'1 2.4
2017-Jun-22 17:00N 60°49' E 028°44'0 0.3
2017-Jun-22 16:29N 60°49' E 028°44'0 0.1
2017-Jun-22 16:00N 60°49' E 028°44'1 2.8
2017-Jun-22 15:30N 60°47' E 028°43'3 6.0
2017-Jun-22 15:00N 60°44' E 028°42'6 5.9
2017-Jun-22 14:00N 60°39' E 028°36'3 6.7
2017-Jun-22 13:30N 60°36' E 028°32'4 7.0
2017-Jun-22 13:00N 60°35' E 028°26'3 6.6
2017-Jun-22 12:30N 60°32' E 028°22'4 7.1
2017-Jun-22 12:00N 60°29' E 028°22'3 6.7
2017-Jun-22 11:30N 60°25' E 028°20'3 6.9
2017-Jun-22 11:00N 60°22' E 028°20'3 6.5
2017-Jun-22 10:31N 60°19' E 028°24'3 6.8
2017-Jun-22 10:00N 60°17' E 028°29'3 6.7
2017-Jun-22 09:30N 60°15' E 028°34'3 6.8
2017-Jun-22 09:01N 60°14' E 028°41'3 6.9
2017-Jun-22 08:31N 60°12' E 028°47'3 6.8
2017-Jun-22 08:00N 60°11' E 028°53'3 7.0
2017-Jun-22 07:30N 60°08' E 028°56'4 7.1
2017-Jun-22 07:00N 60°04' E 028°58'3 6.1
2017-Jun-22 06:29N 60°03' E 029°04'3 7.1
2017-Jun-22 06:00N 60°02' E 029°11'29 6.5
2017-Jun-22 01:33N 59°54' E 030°06'0 7.0
2017-Jun-22 01:30N 59°54' E 030°06'3 6.2
2017-Jun-22 01:00N 59°53' E 030°12'4 7.5
2017-Jun-22 00:31N 59°56' E 030°17'4 7.1
2017-Jun-22 00:00N 59°57' E 030°24'2 4.1
2017-Jun-21 23:30N 59°55' E 030°24'0 0.0
2017-Jun-21 23:00N 59°55' E 030°24'0 0.0
2017-Jun-21 22:28N 59°55' E 030°24'0 0.0
2017-Jun-21 22:01N 59°55' E 030°24'0 0.0
2017-Jun-21 21:30N 59°55' E 030°24'0 0.0
2017-Jun-21 20:59N 59°55' E 030°24'0 0.0
2017-Jun-21 20:25N 59°55' E 030°24'0 0.0
2017-Jun-21 20:00N 59°55' E 030°24'0 0.0
2017-Jun-21 19:29N 59°55' E 030°24'0 0.0
2017-Jun-21 18:59N 59°55' E 030°24'0 0.0
2017-Jun-21 18:30N 59°55' E 030°24'0 0.0
2017-Jun-21 17:59N 59°55' E 030°24'0 0.0
2017-Jun-21 17:31N 59°55' E 030°24'0 0.0
2017-Jun-21 17:00N 59°55' E 030°24'0 0.0
2017-Jun-21 16:30N 59°55' E 030°24'0 0.0
2017-Jun-21 16:00N 59°55' E 030°24'0 0.0
2017-Jun-21 15:30N 59°55' E 030°24'0 0.0
2017-Jun-21 15:00N 59°55' E 030°24'1 1.0
2017-Jun-21 14:00N 59°55' E 030°25'  
2017-Jun-16 02:27N 59°47' E 030°44'2 4.7
2017-Jun-16 02:00N 59°47' E 030°40'5 4.3
2017-Jun-16 00:52N 59°50' E 030°32'2 4.6
2017-Jun-16 00:30N 59°51' E 030°30'3 4.5
2017-Jun-15 23:57N 59°53' E 030°27'3 6.2
2017-Jun-15 23:30N 59°56' E 030°24'2 3.8
2017-Jun-15 23:00N 59°57' E 030°21'2 4.7
2017-Jun-15 22:30N 59°56' E 030°17'0 0.1
2017-Jun-15 22:00N 59°56' E 030°17'0 0.0
2017-Jun-15 21:30N 59°56' E 030°17'0 0.0
2017-Jun-15 21:00N 59°56' E 030°17'0 0.0
2017-Jun-15 20:30N 59°56' E 030°17'0 0.0
2017-Jun-15 20:00N 59°56' E 030°17'2 3.4
2017-Jun-15 19:30N 59°55' E 030°14'4 7.6
2017-Jun-15 19:00N 59°56' E 030°08'4 7.8
2017-Jun-15 18:30N 59°55' E 030°00'4 8.3
2017-Jun-15 18:00N 59°57' E 029°52'4 8.1
2017-Jun-15 17:30N 59°59' E 029°45'3 5.7
2017-Jun-15 17:00N 59°60' E 029°40'4 7.1
2017-Jun-15 16:30N 60°01' E 029°33'4 7.6
2017-Jun-15 16:00N 60°01' E 029°26'4 8.4
2017-Jun-15 15:30N 60°02' E 029°17'4 8.1
2017-Jun-15 15:00N 60°02' E 029°09'7 7.1
2017-Jun-15 14:00N 60°05' E 028°57'4 8.7
2017-Jun-15 13:30N 60°10' E 028°55'4 8.2
2017-Jun-15 13:00N 60°12' E 028°48'5 9.3
2017-Jun-15 12:30N 60°14' E 028°40'4 8.7
2017-Jun-15 12:00N 60°15' E 028°32'4 8.2
2017-Jun-15 11:31N 60°18' E 028°26'5 9.3
2017-Jun-15 11:00N 60°22' E 028°21'4 8.1
2017-Jun-15 10:30N 60°26' E 028°20'4 8.1
2017-Jun-15 10:00N 60°30' E 028°21'4 7.3
2017-Jun-15 09:29N 60°34' E 028°23'  

Dump ship's entire track history